KCNI

Cherokee County Airport

Canton, Georgia, USA
METAR KCNI 180235Z AUTO 00000KT 1 1/2SM BR SCT001 OVC013 07/07 A3019 RMK AO2
Observed Flight Rules
Dec-18 @ 02:35 UTC (27 minutes ago) Instrument Flight Rules
Wind Visibility Clouds Conditions
Calm 1 1/2 miles
  • Scattered at 100' AGL
  • Overcast at 1,300' AGL
  • Mist
Temperatures Readings
Current 7°C / 45°F
Dewpoint 7°C / 45°F
Humidity 100%
Altimeter 30.19" Hg
Pressure 1022 hPa
Elevation 372
METAR KCNI 180235Z AUTO 00000KT 1 1/2SM BR SCT001 OVC013 07/07 A3019 RMK AO2
Observed Flight Rules
Dec-18 @ 02:35 UTC
(27 minutes ago)
IFR
Wind Visibility
Calm 1 1/2 miles
Clouds
  • Scattered at 100' AGL
  • Overcast at 1,300' AGL
Conditions
  • Mist
Temperature Dewpoint
7°C / 45°F 7°C / 45°F
Humidity Altimeter Pressure
100% 30.19" Hg 1022 hPa